ESNM weather

Optand Airport
Jämtlande län, Sweden

Public forecast

Using degrees Celsius for public forecast. Weather courtesy of forecast.io.

Closest aviation weather report (METAR) to Optand Airport

Closest report is Åre Östersund Airport, 9.1 nm (16.9 km) WNW. Retrieved 2020/04/05 10:50 UTC (11 minutes ago):

ESNZ 051050Z 14009KT CAVOK 01/M10 Q1022

Closest aviation forecast (TAF) to Optand Airport

Forecast is more than 12 hours old.

Closest forecast is Kramfors Sollefteå Airport, 80.7 nm (149.5 km) E. Retrieved 2015/10/08 12:00 UTC (4 years ago):

TAF ESNK 081130Z 0812/0824 18005KT CAVOK PROB40 0820/0824 4000 BR